sensor_id;sensor_type;location;lat;lon;timestamp;pressure;altitude;pressure_sealevel;temperature;humidity
76868;BME280;66168;45.478;11.060;2023-04-25T00:01:05;100033.50;;;14.82;61.95
76868;BME280;66168;45.478;11.060;2023-04-25T00:03:32;100030.06;;;14.79;61.79
76868;BME280;66168;45.478;11.060;2023-04-25T00:05:59;100024.16;;;14.77;61.68
76868;BME280;66168;45.478;11.060;2023-04-25T00:08:29;100021.04;;;14.77;61.55
76868;BME280;66168;45.478;11.060;2023-04-25T00:10:57;100014.18;;;14.75;61.34
76868;BME280;66168;45.478;11.060;2023-04-25T00:13:25;100019.23;;;14.77;61.30
76868;BME280;66168;45.478;11.060;2023-04-25T00:15:52;100018.66;;;14.81;61.39
76868;BME280;66168;45.478;11.060;2023-04-25T00:18:20;100021.56;;;14.78;61.52
76868;BME280;66168;45.478;11.060;2023-04-25T00:20:46;100018.48;;;14.77;61.47
76868;BME280;66168;45.478;11.060;2023-04-25T00:23:14;100018.35;;;14.75;61.44
76868;BME280;66168;45.478;11.060;2023-04-25T00:25:45;100014.98;;;14.73;61.91
76868;BME280;66168;45.478;11.060;2023-04-25T00:28:12;100016.73;;;14.72;62.07
76868;BME280;66168;45.478;11.060;2023-04-25T00:30:40;100018.74;;;14.71;61.95
76868;BME280;66168;45.478;11.060;2023-04-25T00:33:07;100017.94;;;14.69;62.24
76868;BME280;66168;45.478;11.060;2023-04-25T00:35:34;100016.41;;;14.70;62.32
76868;BME280;66168;45.478;11.060;2023-04-25T00:38:02;100012.35;;;14.72;62.64
76868;BME280;66168;45.478;11.060;2023-04-25T00:40:28;100004.48;;;14.73;62.74
76868;BME280;66168;45.478;11.060;2023-04-25T00:42:55;99998.52;;;14.75;62.81
76868;BME280;66168;45.478;11.060;2023-04-25T00:45:27;99995.64;;;14.76;62.75
76868;BME280;66168;45.478;11.060;2023-04-25T00:47:56;99993.02;;;14.76;62.60
76868;BME280;66168;45.478;11.060;2023-04-25T00:50:24;99985.73;;;14.75;62.77
76868;BME280;66168;45.478;11.060;2023-04-25T00:52:51;99983.67;;;14.70;62.62
76868;BME280;66168;45.478;11.060;2023-04-25T00:55:19;99986.46;;;14.66;62.81
76868;BME280;66168;45.478;11.060;2023-04-25T00:57:46;99981.59;;;14.61;63.46
76868;BME280;66168;45.478;11.060;2023-04-25T01:00:13;99984.49;;;14.60;63.75
76868;BME280;66168;45.478;11.060;2023-04-25T01:02:43;99978.70;;;14.58;64.04
76868;BME280;66168;45.478;11.060;2023-04-25T01:05:11;99977.05;;;14.59;63.83
76868;BME280;66168;45.478;11.060;2023-04-25T01:07:38;99974.98;;;14.59;64.10
76868;BME280;66168;45.478;11.060;2023-04-25T01:10:06;99974.30;;;14.61;64.53
76868;BME280;66168;45.478;11.060;2023-04-25T01:12:33;99969.82;;;14.63;64.73
76868;BME280;66168;45.478;11.060;2023-04-25T01:15:00;99964.95;;;14.64;64.31
76868;BME280;66168;45.478;11.060;2023-04-25T01:17:28;99961.59;;;14.65;63.93
76868;BME280;66168;45.478;11.060;2023-04-25T01:19:55;99957.70;;;14.65;63.86
76868;BME280;66168;45.478;11.060;2023-04-25T01:22:22;99958.36;;;14.64;63.54
76868;BME280;66168;45.478;11.060;2023-04-25T01:24:50;99960.11;;;14.62;63.35
76868;BME280;66168;45.478;11.060;2023-04-25T01:27:17;99958.71;;;14.60;63.14
76868;BME280;66168;45.478;11.060;2023-04-25T01:29:45;99963.34;;;14.59;63.23
76868;BME280;66168;45.478;11.060;2023-04-25T01:32:13;99967.30;;;14.59;63.53
76868;BME280;66168;45.478;11.060;2023-04-25T01:34:40;99965.16;;;14.57;63.46
76868;BME280;66168;45.478;11.060;2023-04-25T01:37:07;99958.27;;;14.56;63.21
76868;BME280;66168;45.478;11.060;2023-04-25T01:39:34;99953.98;;;14.56;62.94
76868;BME280;66168;45.478;11.060;2023-04-25T01:42:01;99958.17;;;14.58;62.80
76868;BME280;66168;45.478;11.060;2023-04-25T01:44:29;99952.86;;;14.61;62.85
76868;BME280;66168;45.478;11.060;2023-04-25T01:46:56;99956.05;;;14.64;62.64
76868;BME280;66168;45.478;11.060;2023-04-25T01:49:23;99964.25;;;14.63;62.43
76868;BME280;66168;45.478;11.060;2023-04-25T01:51:50;99964.70;;;14.64;62.30
76868;BME280;66168;45.478;11.060;2023-04-25T01:54:18;99964.64;;;14.70;62.72
76868;BME280;66168;45.478;11.060;2023-04-25T01:56:50;99960.73;;;14.75;62.83
76868;BME280;66168;45.478;11.060;2023-04-25T01:59:18;99959.84;;;14.78;62.47
76868;BME280;66168;45.478;11.060;2023-04-25T02:02:02;99951.41;;;14.81;62.43
76868;BME280;66168;45.478;11.060;2023-04-25T02:04:32;99950.45;;;14.83;61.89
76868;BME280;66168;45.478;11.060;2023-04-25T02:07:00;99946.41;;;14.84;61.73
76868;BME280;66168;45.478;11.060;2023-04-25T02:09:36;99943.94;;;14.84;61.59
76868;BME280;66168;45.478;11.060;2023-04-25T02:12:05;99946.08;;;14.85;61.30
76868;BME280;66168;45.478;11.060;2023-04-25T02:14:36;99944.65;;;14.83;60.95
76868;BME280;66168;45.478;11.060;2023-04-25T02:17:09;99939.51;;;14.82;60.98
76868;BME280;66168;45.478;11.060;2023-04-25T02:19:36;99933.88;;;14.82;60.92
76868;BME280;66168;45.478;11.060;2023-04-25T02:22:03;99929.44;;;14.80;60.99
76868;BME280;66168;45.478;11.060;2023-04-25T02:24:30;99919.65;;;14.79;60.89
76868;BME280;66168;45.478;11.060;2023-04-25T02:26:58;99912.83;;;14.76;60.92
76868;BME280;66168;45.478;11.060;2023-04-25T02:29:25;99910.94;;;14.72;60.67
76868;BME280;66168;45.478;11.060;2023-04-25T02:31:51;99904.04;;;14.69;60.71
76868;BME280;66168;45.478;11.060;2023-04-25T02:34:18;99902.16;;;14.65;60.52
76868;BME280;66168;45.478;11.060;2023-04-25T02:36:45;99897.29;;;14.62;60.47
76868;BME280;66168;45.478;11.060;2023-04-25T02:39:11;99895.34;;;14.58;60.36
76868;BME280;66168;45.478;11.060;2023-04-25T02:41:38;99890.87;;;14.51;60.63
76868;BME280;66168;45.478;11.060;2023-04-25T02:44:05;99883.23;;;14.40;60.37
76868;BME280;66168;45.478;11.060;2023-04-25T02:46:31;99886.41;;;14.35;60.44
76868;BME280;66168;45.478;11.060;2023-04-25T02:49:03;99879.21;;;14.34;60.47
76868;BME280;66168;45.478;11.060;2023-04-25T02:51:30;99875.15;;;14.30;60.28
76868;BME280;66168;45.478;11.060;2023-04-25T02:53:58;99884.61;;;14.29;60.34
76868;BME280;66168;45.478;11.060;2023-04-25T02:56:24;99894.38;;;14.28;60.52
76868;BME280;66168;45.478;11.060;2023-04-25T02:58:53;99908.91;;;14.27;61.13
76868;BME280;66168;45.478;11.060;2023-04-25T03:01:20;99915.05;;;14.20;63.37
76868;BME280;66168;45.478;11.060;2023-04-25T03:03:47;99914.36;;;14.06;63.72
76868;BME280;66168;45.478;11.060;2023-04-25T03:06:14;99903.54;;;13.93;64.62
76868;BME280;66168;45.478;11.060;2023-04-25T03:08:42;99889.65;;;13.91;65.52
76868;BME280;66168;45.478;11.060;2023-04-25T03:11:09;99882.33;;;13.89;66.17
76868;BME280;66168;45.478;11.060;2023-04-25T03:13:37;99873.29;;;13.87;66.15
76868;BME280;66168;45.478;11.060;2023-04-25T03:16:04;99870.27;;;13.87;66.34
76868;BME280;66168;45.478;11.060;2023-04-25T03:18:31;99864.98;;;13.85;66.59
76868;BME280;66168;45.478;11.060;2023-04-25T03:20:58;99861.41;;;13.85;66.87
76868;BME280;66168;45.478;11.060;2023-04-25T03:23:24;99861.02;;;13.88;67.31
76868;BME280;66168;45.478;11.060;2023-04-25T03:25:52;99875.67;;;13.90;67.47
76868;BME280;66168;45.478;11.060;2023-04-25T03:28:19;99888.33;;;13.86;67.59
76868;BME280;66168;45.478;11.060;2023-04-25T03:30:46;99900.80;;;13.85;67.25
76868;BME280;66168;45.478;11.060;2023-04-25T03:33:13;99903.89;;;13.86;67.52
76868;BME280;66168;45.478;11.060;2023-04-25T03:35:40;99924.67;;;13.88;67.77
76868;BME280;66168;45.478;11.060;2023-04-25T03:38:06;99942.27;;;13.89;67.84
76868;BME280;66168;45.478;11.060;2023-04-25T03:40:37;99951.30;;;13.92;68.07
76868;BME280;66168;45.478;11.060;2023-04-25T03:43:26;99949.59;;;13.95;67.85
76868;BME280;66168;45.478;11.060;2023-04-25T03:45:57;99936.73;;;13.96;67.71
76868;BME280;66168;45.478;11.060;2023-04-25T03:48:25;99921.01;;;13.96;68.12
76868;BME280;66168;45.478;11.060;2023-04-25T03:50:53;99903.95;;;13.93;68.35
76868;BME280;66168;45.478;11.060;2023-04-25T03:53:20;99892.88;;;13.83;68.16
76868;BME280;66168;45.478;11.060;2023-04-25T03:56:06;99884.65;;;13.76;67.92
76868;BME280;66168;45.478;11.060;2023-04-25T03:58:34;99880.75;;;13.76;67.77
76868;BME280;66168;45.478;11.060;2023-04-25T04:01:01;99885.77;;;13.76;67.23
76868;BME280;66168;45.478;11.060;2023-04-25T04:03:30;99890.84;;;13.72;66.65
76868;BME280;66168;45.478;11.060;2023-04-25T04:05:57;99902.16;;;13.70;66.50
76868;BME280;66168;45.478;11.060;2023-04-25T04:08:24;99908.29;;;13.70;66.21
76868;BME280;66168;45.478;11.060;2023-04-25T04:10:51;99908.45;;;13.70;66.02
76868;BME280;66168;45.478;11.060;2023-04-25T04:13:18;99906.94;;;13.68;65.60
76868;BME280;66168;45.478;11.060;2023-04-25T04:15:44;99907.36;;;13.66;65.10
76868;BME280;66168;45.478;11.060;2023-04-25T04:18:12;99910.08;;;13.65;64.82
76868;BME280;66168;45.478;11.060;2023-04-25T04:20:39;99911.30;;;13.60;64.40
76868;BME280;66168;45.478;11.060;2023-04-25T04:23:06;99911.92;;;13.58;64.26
76868;BME280;66168;45.478;11.060;2023-04-25T04:25:33;99910.98;;;13.57;64.22
76868;BME280;66168;45.478;11.060;2023-04-25T04:28:03;99917.73;;;13.57;64.14
76868;BME280;66168;45.478;11.060;2023-04-25T04:30:51;99915.59;;;13.57;63.87
76868;BME280;66168;45.478;11.060;2023-04-25T04:33:18;99923.89;;;13.58;64.16
76868;BME280;66168;45.478;11.060;2023-04-25T04:35:51;99919.05;;;13.57;63.94
76868;BME280;66168;45.478;11.060;2023-04-25T04:38:20;99917.27;;;13.58;63.97
76868;BME280;66168;45.478;11.060;2023-04-25T04:40:49;99913.48;;;13.60;63.91
76868;BME280;66168;45.478;11.060;2023-04-25T04:43:22;99907.48;;;13.59;63.84
76868;BME280;66168;45.478;11.060;2023-04-25T04:46:07;99901.77;;;13.59;63.84
76868;BME280;66168;45.478;11.060;2023-04-25T04:49:10;99905.73;;;13.58;63.61
76868;BME280;66168;45.478;11.060;2023-04-25T04:51:58;99909.63;;;13.56;63.49
76868;BME280;66168;45.478;11.060;2023-04-25T04:54:55;99915.14;;;13.55;63.41
76868;BME280;66168;45.478;11.060;2023-04-25T04:57:54;99908.23;;;13.56;63.48
76868;BME280;66168;45.478;11.060;2023-04-25T05:00:40;99907.98;;;13.58;63.38
76868;BME280;66168;45.478;11.060;2023-04-25T05:03:27;99912.36;;;13.59;63.46
76868;BME280;66168;45.478;11.060;2023-04-25T05:06:05;99922.02;;;13.59;63.45
76868;BME280;66168;45.478;11.060;2023-04-25T05:08:54;99946.46;;;13.63;63.82
76868;BME280;66168;45.478;11.060;2023-04-25T05:11:30;99972.77;;;13.65;64.00
76868;BME280;66168;45.478;11.060;2023-04-25T05:14:23;99992.38;;;13.64;63.97
76868;BME280;66168;45.478;11.060;2023-04-25T05:17:08;100003.05;;;13.68;63.79
76868;BME280;66168;45.478;11.060;2023-04-25T05:19:52;100027.25;;;13.71;63.69
76868;BME280;66168;45.478;11.060;2023-04-25T05:22:37;100055.70;;;13.73;63.23
76868;BME280;66168;45.478;11.060;2023-04-25T05:25:24;100081.00;;;13.63;63.64
76868;BME280;66168;45.478;11.060;2023-04-25T05:28:14;100112.45;;;13.35;64.51
76868;BME280;66168;45.478;11.060;2023-04-25T05:30:52;100114.64;;;12.87;65.36
76868;BME280;66168;45.478;11.060;2023-04-25T05:33:28;100102.27;;;12.55;66.25
76868;BME280;66168;45.478;11.060;2023-04-25T05:35:54;100087.05;;;12.40;66.92
76868;BME280;66168;45.478;11.060;2023-04-25T05:38:22;100067.95;;;12.34;67.48
76868;BME280;66168;45.478;11.060;2023-04-25T05:41:07;100061.46;;;12.30;68.38
76868;BME280;66168;45.478;11.060;2023-04-25T05:43:40;100061.20;;;12.25;68.62
76868;BME280;66168;45.478;11.060;2023-04-25T05:46:25;100057.88;;;12.20;68.86
76868;BME280;66168;45.478;11.060;2023-04-25T05:49:10;100044.41;;;12.17;69.28
76868;BME280;66168;45.478;11.060;2023-04-25T05:51:51;100040.84;;;12.16;69.80
76868;BME280;66168;45.478;11.060;2023-04-25T05:54:27;100039.69;;;12.14;70.43
76868;BME280;66168;45.478;11.060;2023-04-25T05:56:56;100039.56;;;12.12;70.42
76868;BME280;66168;45.478;11.060;2023-04-25T05:59:23;100047.01;;;12.10;70.88
76868;BME280;66168;45.478;11.060;2023-04-25T06:01:50;100043.70;;;12.04;71.91
76868;BME280;66168;45.478;11.060;2023-04-25T06:04:20;100039.70;;;11.98;71.73
76868;BME280;66168;45.478;11.060;2023-04-25T06:06:47;100034.40;;;12.02;71.93
76868;BME280;66168;45.478;11.060;2023-04-25T06:09:14;100024.88;;;12.11;72.18
76868;BME280;66168;45.478;11.060;2023-04-25T06:11:41;100014.02;;;12.19;72.29
76868;BME280;66168;45.478;11.060;2023-04-25T06:14:08;100005.52;;;12.27;72.72
76868;BME280;66168;45.478;11.060;2023-04-25T06:16:36;100001.92;;;12.36;72.59
76868;BME280;66168;45.478;11.060;2023-04-25T06:19:03;100001.73;;;12.43;72.83
76868;BME280;66168;45.478;11.060;2023-04-25T06:21:30;100007.59;;;12.45;72.42
76868;BME280;66168;45.478;11.060;2023-04-25T06:23:58;100012.73;;;12.48;72.22
76868;BME280;66168;45.478;11.060;2023-04-25T06:26:25;100015.84;;;12.41;72.17
76868;BME280;66168;45.478;11.060;2023-04-25T06:28:51;100015.83;;;12.40;71.91
76868;BME280;66168;45.478;11.060;2023-04-25T06:31:18;100018.98;;;12.38;71.74
76868;BME280;66168;45.478;11.060;2023-04-25T06:33:45;100022.35;;;12.38;71.68
76868;BME280;66168;45.478;11.060;2023-04-25T06:36:12;100028.02;;;12.43;71.81
76868;BME280;66168;45.478;11.060;2023-04-25T06:38:39;100033.89;;;12.47;71.90
76868;BME280;66168;45.478;11.060;2023-04-25T06:41:06;100037.34;;;12.49;71.84
76868;BME280;66168;45.478;11.060;2023-04-25T06:43:34;100032.18;;;12.53;71.86
76868;BME280;66168;45.478;11.060;2023-04-25T06:46:05;100028.66;;;12.59;72.15
76868;BME280;66168;45.478;11.060;2023-04-25T06:48:38;100021.27;;;12.64;72.31
76868;BME280;66168;45.478;11.060;2023-04-25T06:51:04;100023.45;;;12.69;71.93
76868;BME280;66168;45.478;11.060;2023-04-25T06:53:33;100024.16;;;12.69;71.28
76868;BME280;66168;45.478;11.060;2023-04-25T06:56:02;100027.48;;;12.71;71.15
76868;BME280;66168;45.478;11.060;2023-04-25T06:58:40;100025.27;;;12.72;71.18
76868;BME280;66168;45.478;11.060;2023-04-25T07:01:21;100018.08;;;12.71;71.33
76868;BME280;66168;45.478;11.060;2023-04-25T07:03:47;100015.65;;;12.69;71.63
76868;BME280;66168;45.478;11.060;2023-04-25T07:06:16;100002.65;;;12.64;71.71
76868;BME280;66168;45.478;11.060;2023-04-25T07:08:44;99991.48;;;12.66;71.84
76868;BME280;66168;45.478;11.060;2023-04-25T07:11:11;99981.35;;;12.71;72.28
76868;BME280;66168;45.478;11.060;2023-04-25T07:13:38;99971.50;;;12.79;72.25
76868;BME280;66168;45.478;11.060;2023-04-25T07:16:05;99966.40;;;12.83;72.40
76868;BME280;66168;45.478;11.060;2023-04-25T07:18:33;99967.76;;;12.92;72.36
76868;BME280;66168;45.478;11.060;2023-04-25T07:21:00;99969.02;;;12.95;72.15
76868;BME280;66168;45.478;11.060;2023-04-25T07:23:28;99968.64;;;13.06;72.14
76868;BME280;66168;45.478;11.060;2023-04-25T07:25:57;99964.30;;;13.30;72.33
76868;BME280;66168;45.478;11.060;2023-04-25T07:28:24;99959.27;;;13.58;71.90
76868;BME280;66168;45.478;11.060;2023-04-25T07:30:51;99957.23;;;13.82;71.24
76868;BME280;66168;45.478;11.060;2023-04-25T07:33:17;99953.42;;;14.00;70.82
76868;BME280;66168;45.478;11.060;2023-04-25T07:35:46;99954.77;;;14.00;70.92
76868;BME280;66168;45.478;11.060;2023-04-25T07:38:13;99949.52;;;14.02;71.00
76868;BME280;66168;45.478;11.060;2023-04-25T07:40:40;99948.61;;;13.95;70.23
76868;BME280;66168;45.478;11.060;2023-04-25T07:43:07;99945.13;;;13.84;69.75
76868;BME280;66168;45.478;11.060;2023-04-25T07:45:46;99940.92;;;13.71;68.96
76868;BME280;66168;45.478;11.060;2023-04-25T07:48:17;99940.48;;;13.59;69.10
76868;BME280;66168;45.478;11.060;2023-04-25T07:50:45;99938.52;;;13.56;69.21
76868;BME280;66168;45.478;11.060;2023-04-25T07:53:12;99939.05;;;13.56;69.85
76868;BME280;66168;45.478;11.060;2023-04-25T07:55:44;99942.73;;;13.62;70.25
76868;BME280;66168;45.478;11.060;2023-04-25T07:58:16;99944.95;;;13.73;69.64
76868;BME280;66168;45.478;11.060;2023-04-25T08:00:49;99945.64;;;13.87;69.22
76868;BME280;66168;45.478;11.060;2023-04-25T08:03:34;99942.05;;;14.12;68.85
76868;BME280;66168;45.478;11.060;2023-04-25T08:06:04;99945.08;;;14.56;68.79
76868;BME280;66168;45.478;11.060;2023-04-25T08:08:39;99947.90;;;15.11;68.06
76868;BME280;66168;45.478;11.060;2023-04-25T08:11:07;99947.47;;;15.56;67.03
76868;BME280;66168;45.478;11.060;2023-04-25T08:13:34;99943.16;;;15.92;65.49
76868;BME280;66168;45.478;11.060;2023-04-25T08:16:01;99945.48;;;16.18;64.51
76868;BME280;66168;45.478;11.060;2023-04-25T08:18:28;99949.21;;;16.36;64.22
76868;BME280;66168;45.478;11.060;2023-04-25T08:20:54;99950.63;;;16.48;63.65
76868;BME280;66168;45.478;11.060;2023-04-25T08:23:22;99946.81;;;16.61;62.51
76868;BME280;66168;45.478;11.060;2023-04-25T08:26:00;99951.77;;;16.58;61.70
76868;BME280;66168;45.478;11.060;2023-04-25T08:28:27;99957.09;;;16.42;61.12
76868;BME280;66168;45.478;11.060;2023-04-25T08:30:56;99960.96;;;16.42;61.40
76868;BME280;66168;45.478;11.060;2023-04-25T08:33:30;99963.90;;;16.48;60.00
76868;BME280;66168;45.478;11.060;2023-04-25T08:36:18;99962.27;;;16.41;59.89
76868;BME280;66168;45.478;11.060;2023-04-25T08:39:04;99970.84;;;16.51;59.55
76868;BME280;66168;45.478;11.060;2023-04-25T08:41:34;99974.34;;;16.53;59.15
76868;BME280;66168;45.478;11.060;2023-04-25T08:44:03;99973.40;;;16.58;58.92
76868;BME280;66168;45.478;11.060;2023-04-25T08:46:30;99977.77;;;16.90;58.12
76868;BME280;66168;45.478;11.060;2023-04-25T08:49:09;99981.05;;;17.25;56.92
76868;BME280;66168;45.478;11.060;2023-04-25T08:51:46;99984.33;;;17.47;56.55
76868;BME280;66168;45.478;11.060;2023-04-25T08:54:14;99983.02;;;17.67;55.79
76868;BME280;66168;45.478;11.060;2023-04-25T08:57:02;99978.42;;;17.93;55.67
76868;BME280;66168;45.478;11.060;2023-04-25T08:59:33;99980.52;;;18.27;55.20
76868;BME280;66168;45.478;11.060;2023-04-25T09:02:01;99979.67;;;18.51;54.24
76868;BME280;66168;45.478;11.060;2023-04-25T09:04:31;99980.20;;;18.59;53.57
76868;BME280;66168;45.478;11.060;2023-04-25T09:06:58;99983.45;;;18.70;52.69
76868;BME280;66168;45.478;11.060;2023-04-25T09:09:25;99979.64;;;18.91;53.53
76868;BME280;66168;45.478;11.060;2023-04-25T09:11:54;99980.95;;;19.10;53.07
76868;BME280;66168;45.478;11.060;2023-04-25T09:14:23;99978.70;;;19.37;50.98
76868;BME280;66168;45.478;11.060;2023-04-25T09:17:03;99981.05;;;19.40;50.90
76868;BME280;66168;45.478;11.060;2023-04-25T09:19:52;99988.45;;;19.42;49.78
76868;BME280;66168;45.478;11.060;2023-04-25T09:22:26;99989.55;;;19.53;50.00
76868;BME280;66168;45.478;11.060;2023-04-25T09:24:53;99985.16;;;19.60;50.14
76868;BME280;66168;45.478;11.060;2023-04-25T09:27:22;99985.27;;;19.64;49.18
76868;BME280;66168;45.478;11.060;2023-04-25T09:29:58;99991.11;;;19.78;49.29
76868;BME280;66168;45.478;11.060;2023-04-25T09:32:44;99990.74;;;20.02;49.91
76868;BME280;66168;45.478;11.060;2023-04-25T09:35:23;99985.27;;;20.39;49.38
76868;BME280;66168;45.478;11.060;2023-04-25T09:37:51;99986.75;;;20.63;48.20
76868;BME280;66168;45.478;11.060;2023-04-25T09:40:44;99988.36;;;20.82;48.47
76868;BME280;66168;45.478;11.060;2023-04-25T09:43:22;99986.47;;;21.10;48.60
76868;BME280;66168;45.478;11.060;2023-04-25T09:45:51;99990.39;;;21.21;47.35
76868;BME280;66168;45.478;11.060;2023-04-25T09:48:21;99992.49;;;21.29;47.15
76868;BME280;66168;45.478;11.060;2023-04-25T09:51:12;99990.83;;;21.17;45.98
76868;BME280;66168;45.478;11.060;2023-04-25T09:53:45;99993.45;;;20.99;46.30
76868;BME280;66168;45.478;11.060;2023-04-25T09:56:26;99989.38;;;21.04;46.03
76868;BME280;66168;45.478;11.060;2023-04-25T09:58:55;99992.16;;;21.00;46.14
76868;BME280;66168;45.478;11.060;2023-04-25T10:01:23;99992.95;;;21.23;46.04
76868;BME280;66168;45.478;11.060;2023-04-25T10:04:02;99992.98;;;21.73;45.68
76868;BME280;66168;45.478;11.060;2023-04-25T10:06:40;99990.45;;;21.85;45.36
76868;BME280;66168;45.478;11.060;2023-04-25T10:09:07;99996.17;;;21.72;44.82
76868;BME280;66168;45.478;11.060;2023-04-25T10:11:36;99996.00;;;21.68;44.73
76868;BME280;66168;45.478;11.060;2023-04-25T10:14:04;99994.46;;;21.25;44.52
76868;BME280;66168;45.478;11.060;2023-04-25T10:16:32;99992.34;;;20.56;44.72
76868;BME280;66168;45.478;11.060;2023-04-25T10:18:58;99987.08;;;19.85;46.23
76868;BME280;66168;45.478;11.060;2023-04-25T10:21:28;99987.57;;;19.16;47.80
76868;BME280;66168;45.478;11.060;2023-04-25T10:23:57;99990.36;;;18.74;48.97
76868;BME280;66168;45.478;11.060;2023-04-25T10:26:24;99994.63;;;18.77;49.72
76868;BME280;66168;45.478;11.060;2023-04-25T10:28:56;99992.52;;;18.85;49.22
76868;BME280;66168;45.478;11.060;2023-04-25T10:31:24;99995.16;;;18.82;49.23
76868;BME280;66168;45.478;11.060;2023-04-25T10:33:51;99992.01;;;19.07;49.41
76868;BME280;66168;45.478;11.060;2023-04-25T10:36:22;99993.78;;;19.47;49.17
76868;BME280;66168;45.478;11.060;2023-04-25T10:38:50;99994.20;;;19.88;48.72
76868;BME280;66168;45.478;11.060;2023-04-25T10:41:19;99998.41;;;20.02;48.24
76868;BME280;66168;45.478;11.060;2023-04-25T10:43:48;99998.10;;;19.89;47.09
76868;BME280;66168;45.478;11.060;2023-04-25T10:46:25;100006.81;;;19.78;47.50
76868;BME280;66168;45.478;11.060;2023-04-25T10:48:57;100008.17;;;19.71;47.72
76868;BME280;66168;45.478;11.060;2023-04-25T10:51:29;100004.44;;;19.49;47.14
76868;BME280;66168;45.478;11.060;2023-04-25T10:54:17;100004.58;;;19.16;47.25
76868;BME280;66168;45.478;11.060;2023-04-25T10:56:44;100010.38;;;18.82;47.54
76868;BME280;66168;45.478;11.060;2023-04-25T10:59:15;100006.08;;;18.64;47.71
76868;BME280;66168;45.478;11.060;2023-04-25T11:01:44;100012.25;;;18.56;48.44
76868;BME280;66168;45.478;11.060;2023-04-25T11:04:28;100013.00;;;18.59;48.14
76868;BME280;66168;45.478;11.060;2023-04-25T11:09:35;100008.64;;;18.42;48.26
76868;BME280;66168;45.478;11.060;2023-04-25T11:12:02;100007.77;;;18.28;48.43
76868;BME280;66168;45.478;11.060;2023-04-25T11:14:29;100004.06;;;18.25;48.67
76868;BME280;66168;45.478;11.060;2023-04-25T11:16:57;100001.55;;;18.37;48.90
76868;BME280;66168;45.478;11.060;2023-04-25T11:19:26;99997.30;;;18.47;49.20
76868;BME280;66168;45.478;11.060;2023-04-25T11:21:57;99999.06;;;18.60;49.47
76868;BME280;66168;45.478;11.060;2023-04-25T11:24:28;100001.62;;;18.55;49.03
76868;BME280;66168;45.478;11.060;2023-04-25T11:26:57;100002.85;;;18.44;49.01
76868;BME280;66168;45.478;11.060;2023-04-25T11:29:28;100005.02;;;18.34;48.97
76868;BME280;66168;45.478;11.060;2023-04-25T11:31:56;100004.00;;;18.39;48.83
76868;BME280;66168;45.478;11.060;2023-04-25T11:34:27;100009.92;;;18.30;49.10
76868;BME280;66168;45.478;11.060;2023-04-25T11:36:57;100013.89;;;18.15;49.60
76868;BME280;66168;45.478;11.060;2023-04-25T11:39:25;100020.17;;;18.06;49.95
76868;BME280;66168;45.478;11.060;2023-04-25T11:41:53;100021.85;;;17.99;49.70
76868;BME280;66168;45.478;11.060;2023-04-25T11:44:21;100020.47;;;17.86;49.60
76868;BME280;66168;45.478;11.060;2023-04-25T11:46:48;100018.79;;;17.67;50.22
76868;BME280;66168;45.478;11.060;2023-04-25T11:49:15;100023.91;;;17.42;51.17
76868;BME280;66168;45.478;11.060;2023-04-25T11:51:44;100031.44;;;17.21;51.92
76868;BME280;66168;45.478;11.060;2023-04-25T11:54:11;100034.02;;;17.06;52.54
76868;BME280;66168;45.478;11.060;2023-04-25T11:56:42;100039.83;;;16.92;52.96
76868;BME280;66168;45.478;11.060;2023-04-25T11:59:10;100041.88;;;16.83;53.61
76868;BME280;66168;45.478;11.060;2023-04-25T12:01:46;100041.25;;;16.78;55.65
76868;BME280;66168;45.478;11.060;2023-04-25T12:04:24;100043.70;;;16.72;55.86
76868;BME280;66168;45.478;11.060;2023-04-25T12:06:55;100049.72;;;16.55;56.70
76868;BME280;66168;45.478;11.060;2023-04-25T12:09:30;100050.01;;;16.40;58.02
76868;BME280;66168;45.478;11.060;2023-04-25T12:11:59;100047.42;;;16.26;58.60
76868;BME280;66168;45.478;11.060;2023-04-25T12:14:34;100050.70;;;16.19;59.34
76868;BME280;66168;45.478;11.060;2023-04-25T12:17:03;100051.96;;;16.08;59.59
76868;BME280;66168;45.478;11.060;2023-04-25T12:19:34;100054.40;;;16.03;59.45
76868;BME280;66168;45.478;11.060;2023-04-25T12:22:02;100056.64;;;15.87;59.98
76868;BME280;66168;45.478;11.060;2023-04-25T12:24:33;100058.60;;;15.70;60.32
76868;BME280;66168;45.478;11.060;2023-04-25T12:27:06;100060.15;;;15.65;61.03
76868;BME280;66168;45.478;11.060;2023-04-25T12:29:35;100061.40;;;15.60;61.10
76868;BME280;66168;45.478;11.060;2023-04-25T12:32:15;100061.75;;;15.49;61.50
76868;BME280;66168;45.478;11.060;2023-04-25T12:34:43;100062.61;;;15.47;62.02
76868;BME280;66168;45.478;11.060;2023-04-25T12:37:10;100071.33;;;15.46;62.71
76868;BME280;66168;45.478;11.060;2023-04-25T12:39:37;100073.13;;;15.48;63.14
76868;BME280;66168;45.478;11.060;2023-04-25T12:42:04;100078.02;;;15.45;62.93
76868;BME280;66168;45.478;11.060;2023-04-25T12:44:34;100082.19;;;15.40;63.01
76868;BME280;66168;45.478;11.060;2023-04-25T12:47:01;100087.09;;;15.34;63.13
76868;BME280;66168;45.478;11.060;2023-04-25T12:49:29;100093.62;;;15.28;63.44
76868;BME280;66168;45.478;11.060;2023-04-25T12:51:56;100086.38;;;15.22;63.44
76868;BME280;66168;45.478;11.060;2023-04-25T12:54:23;100078.94;;;15.10;63.10
76868;BME280;66168;45.478;11.060;2023-04-25T12:56:51;100076.30;;;14.97;63.29
76868;BME280;66168;45.478;11.060;2023-04-25T12:59:18;100076.54;;;14.80;63.67
76868;BME280;66168;45.478;11.060;2023-04-25T13:01:46;100085.81;;;14.71;64.24
76868;BME280;66168;45.478;11.060;2023-04-25T13:04:13;100089.27;;;14.64;64.74
76868;BME280;66168;45.478;11.060;2023-04-25T13:06:40;100086.79;;;14.54;64.84